Level Cross, North Carolina
Current Conditions -  °F | °C
As of 5:15 PM on Friday 24 Oct 2014 (Local Time) from KHBI Reporting Station
Clear Clear  
Wind Chill: 68°   Ceiling: Unl
Heat Index: 68°   Visibility: 10mi
Dew Point: 42°   Wind: 3mph
Humidity: 38%   Direction: 250°WSW
Pressure: 30"   Gusts: NA
Location:  35.8558°N, 79.7985°W
Report Text: KHBI 242115Z AUTO 25003KT 10SM CLR 20/06 A3000 RMK AO2 T02020055
Loading
Personal Weather Stations






























Interactive Weather Map
Tropical Storm Tracking
New forecast layout! Learn more

10-Day Weather Forecast

Advertisements
Track Severe Weather on mobile